Time,TemperatureF,DewpointF,PressureIn,WindDirection,WindDirectionDegrees,WindSpeedMPH,WindSpeedGustMPH,Humidity,HourlyPrecipIn,Conditions,Clouds,dailyrainin,SoftwareType,DateUTC
2013-05-13 00:03:00,61.5,21.2,30.27,SSW,203,3.1,3.1,21,0.00,,SKC,0.00,VWS V14.01,2013-05-13 07:03:00,
2013-05-13 00:08:00,61.5,21.2,30.27,SSE,154,2.7,2.7,21,0.00,,SKC,0.00,VWS V14.01,2013-05-13 07:08:00,
2013-05-13 00:13:00,61.2,20.9,30.27,South,189,4.0,4.0,21,0.00,,SKC,0.00,VWS V14.01,2013-05-13 07:13:00,
2013-05-13 00:18:00,60.6,21.6,30.27,SSW,205,0.0,2.7,22,0.00,,SKC,0.00,VWS V14.01,2013-05-13 07:18:00,
2013-05-13 00:23:00,59.9,21.0,30.27,SSW,205,0.0,0.0,22,0.00,,SKC,0.00,VWS V14.01,2013-05-13 07:23:00,
2013-05-13 00:28:00,59.2,22.4,30.27,SSW,205,0.0,0.0,24,0.00,,SKC,0.00,VWS V14.01,2013-05-13 07:28:00,
2013-05-13 00:33:00,58.6,22.0,30.27,SSW,205,0.0,0.0,24,0.00,,SKC,0.00,VWS V14.01,2013-05-13 07:33:00,
2013-05-13 00:38:00,58.5,21.8,30.27,SE,126,0.0,0.0,24,0.00,,SKC,0.00,VWS V14.01,2013-05-13 07:38:00,
2013-05-13 00:43:00,57.9,21.4,30.27,SE,126,0.0,0.0,24,0.00,,SKC,0.00,VWS V14.01,2013-05-13 07:43:00,
2013-05-13 00:48:00,57.2,21.7,30.27,SE,126,0.0,0.0,25,0.00,,SKC,0.00,VWS V14.01,2013-05-13 07:48:00,
2013-05-13 00:53:00,56.7,21.3,30.27,SE,126,0.0,0.0,25,0.00,,SKC,0.00,VWS V14.01,2013-05-13 07:53:00,
2013-05-13 00:58:00,56.5,22.0,30.27,South,176,3.6,3.6,26,0.00,,SKC,0.00,VWS V14.01,2013-05-13 07:58:00,
2013-05-13 01:03:00,56.8,21.4,30.27,SW,218,0.0,0.0,25,0.00,,SKC,0.00,VWS V14.01,2013-05-13 08:03:00,
2013-05-13 01:08:00,56.8,22.3,30.24,SSW,213,0.0,0.0,26,0.00,,SKC,0.00,VWS V14.01,2013-05-13 08:08:00,
2013-05-13 01:13:00,56.5,22.0,30.24,SSW,213,0.0,0.0,26,0.00,,SKC,0.00,VWS V14.01,2013-05-13 08:13:00,
2013-05-13 01:18:00,56.3,21.9,30.24,SSW,213,0.0,0.0,26,0.00,,SKC,0.00,VWS V14.01,2013-05-13 08:18:00,
2013-05-13 01:23:00,55.9,21.6,30.24,SSW,213,0.0,0.0,26,0.00,,SKC,0.00,VWS V14.01,2013-05-13 08:23:00,
2013-05-13 01:28:00,55.4,22.0,30.24,SSW,213,0.0,0.0,27,0.00,,SKC,0.00,VWS V14.01,2013-05-13 08:28:00,
2013-05-13 01:33:00,55.2,21.8,30.24,SSW,213,0.0,0.0,27,0.00,,SKC,0.00,VWS V14.01,2013-05-13 08:33:00,
2013-05-13 01:38:00,54.9,22.4,30.24,SSW,213,0.0,0.0,28,0.00,,SKC,0.00,VWS V14.01,2013-05-13 08:38:00,
2013-05-13 01:43:00,54.9,22.4,30.24,SSW,213,0.0,0.0,28,0.00,,SKC,0.00,VWS V14.01,2013-05-13 08:43:00,
2013-05-13 01:48:00,55.2,21.8,30.24,ESE,108,3.1,3.6,27,0.00,,SKC,0.00,VWS V14.01,2013-05-13 08:48:00,
2013-05-13 01:53:00,56.5,22.0,30.24,ESE,116,2.7,3.1,26,0.00,,SKC,0.00,VWS V14.01,2013-05-13 08:53:00,
2013-05-13 01:58:00,56.8,22.3,30.24,ESE,116,0.0,0.0,26,0.00,,SKC,0.00,VWS V14.01,2013-05-13 08:58:00,
2013-05-13 02:03:00,56.5,22.0,30.24,ESE,115,0.0,0.0,26,0.00,,SKC,0.00,VWS V14.01,2013-05-13 09:03:00,
2013-05-13 02:08:00,55.9,22.5,30.24,ESE,115,0.0,0.0,27,0.00,,SKC,0.00,VWS V14.01,2013-05-13 09:08:00,
2013-05-13 02:13:00,55.4,22.0,30.24,ESE,117,0.0,0.0,27,0.00,,SKC,0.00,VWS V14.01,2013-05-13 09:13:00,
2013-05-13 02:18:00,54.5,22.1,30.24,ESE,117,0.0,0.0,28,0.00,,SKC,0.00,VWS V14.01,2013-05-13 09:18:00,
2013-05-13 02:23:00,53.8,21.5,30.24,ESE,117,0.0,0.0,28,0.00,,SKC,0.00,VWS V14.01,2013-05-13 09:23:00,
2013-05-13 02:28:00,53.1,22.5,30.24,ESE,117,0.0,0.0,30,0.00,,SKC,0.00,VWS V14.01,2013-05-13 09:28:00,
2013-05-13 02:33:00,53.1,24.0,30.24,ESE,117,0.0,0.0,32,0.00,,SKC,0.00,VWS V14.01,2013-05-13 09:33:00,
2013-05-13 02:38:00,53.1,24.7,30.24,ESE,117,0.0,0.0,33,0.00,,SKC,0.00,VWS V14.01,2013-05-13 09:38:00,
2013-05-13 02:43:00,53.1,24.7,30.24,ESE,117,0.0,0.0,33,0.00,,SKC,0.00,VWS V14.01,2013-05-13 09:43:00,
2013-05-13 02:48:00,53.1,24.7,30.24,ESE,117,0.0,0.0,33,0.00,,SKC,0.00,VWS V14.01,2013-05-13 09:48:00,
2013-05-13 02:53:00,52.9,24.6,30.21,ESE,117,0.0,0.0,33,0.00,,SKC,0.00,VWS V14.01,2013-05-13 09:53:00,
2013-05-13 02:58:00,52.7,24.4,30.21,ESE,117,0.0,0.0,33,0.00,,SKC,0.00,VWS V14.01,2013-05-13 09:58:00,
2013-05-13 03:03:00,53.1,24.0,30.21,ESE,117,0.0,0.0,32,0.00,,SKC,0.00,VWS V14.01,2013-05-13 10:03:00,
2013-05-13 03:08:00,53.1,23.2,30.24,ESE,117,0.0,0.0,31,0.00,,SKC,0.00,VWS V14.01,2013-05-13 10:08:00,
2013-05-13 03:13:00,54.1,23.4,30.24,SE,145,7.6,7.6,30,0.00,,SKC,0.00,VWS V14.01,2013-05-13 10:13:00,
2013-05-13 03:18:00,56.1,22.6,30.24,SSE,154,3.1,6.3,27,0.00,,SKC,0.00,VWS V14.01,2013-05-13 10:18:00,
2013-05-13 03:23:00,56.3,22.8,30.21,WNW,301,0.0,0.0,27,0.00,,SKC,0.00,VWS V14.01,2013-05-13 10:23:00,
2013-05-13 03:28:00,55.9,22.5,30.21,SE,125,0.0,0.0,27,0.00,,SKC,0.00,VWS V14.01,2013-05-13 10:28:00,
2013-05-13 03:33:00,55.6,22.1,30.21,SE,125,0.0,0.0,27,0.00,,SKC,0.00,VWS V14.01,2013-05-13 10:33:00,
2013-05-13 03:38:00,55.0,22.5,30.21,South,186,0.0,0.0,28,0.00,,SKC,0.00,VWS V14.01,2013-05-13 10:38:00,
2013-05-13 03:43:00,54.3,22.8,30.21,South,174,0.0,0.0,29,0.00,,SKC,0.00,VWS V14.01,2013-05-13 10:43:00,
2013-05-13 03:48:00,53.8,22.3,30.21,SE,133,0.0,0.0,29,0.00,,SKC,0.00,VWS V14.01,2013-05-13 10:48:00,
2013-05-13 03:53:00,53.4,23.6,30.21,West,278,0.0,2.2,31,0.00,,SKC,0.00,VWS V14.01,2013-05-13 10:53:00,
2013-05-13 03:58:00,52.9,24.6,30.21,West,278,0.0,0.0,33,0.00,,SKC,0.00,VWS V14.01,2013-05-13 10:58:00,
2013-05-13 04:03:00,52.3,24.8,30.21,West,281,0.0,0.0,34,0.00,,SKC,0.00,VWS V14.01,2013-05-13 11:03:00,
2013-05-13 04:08:00,52.0,25.2,30.21,West,281,0.0,0.0,35,0.00,,SKC,0.00,VWS V14.01,2013-05-13 11:08:00,
2013-05-13 04:13:00,52.0,25.9,30.21,West,279,5.8,7.6,36,0.00,,SKC,0.00,VWS V14.01,2013-05-13 11:13:00,
2013-05-13 04:18:00,51.6,25.6,30.21,West,262,0.0,0.0,36,0.00,,SKC,0.00,VWS V14.01,2013-05-13 11:18:00,
2013-05-13 04:23:00,51.6,25.6,30.21,NW,315,4.9,4.9,36,0.00,,SKC,0.00,VWS V14.01,2013-05-13 11:23:00,
2013-05-13 04:28:00,51.8,25.7,30.21,SE,125,6.3,6.3,36,0.00,,SKC,0.00,VWS V14.01,2013-05-13 11:28:00,
2013-05-13 04:33:00,54.7,23.1,30.21,South,182,5.4,5.4,29,0.00,,SKC,0.00,VWS V14.01,2013-05-13 11:33:00,
2013-05-13 04:38:00,55.0,24.2,30.21,West,280,0.0,0.0,30,0.00,,SKC,0.00,VWS V14.01,2013-05-13 11:38:00,
2013-05-13 04:43:00,54.3,22.8,30.21,NW,322,0.0,0.0,29,0.00,,SKC,0.00,VWS V14.01,2013-05-13 11:43:00,
2013-05-13 04:48:00,55.0,23.4,30.21,WNW,293,5.4,5.8,29,0.00,,SKC,0.00,VWS V14.01,2013-05-13 11:48:00,
2013-05-13 04:53:00,54.9,23.2,30.21,SSE,155,3.6,4.5,29,0.00,,SKC,0.00,VWS V14.01,2013-05-13 11:53:00,
2013-05-13 04:58:00,54.7,23.1,30.21,WSW,239,2.2,3.6,29,0.00,,SKC,0.00,VWS V14.01,2013-05-13 11:58:00,
2013-05-13 05:03:00,54.5,22.9,30.21,West,280,4.0,4.0,29,0.00,,SKC,0.00,VWS V14.01,2013-05-13 12:03:00,
2013-05-13 05:08:00,54.7,22.2,30.21,SE,140,0.0,3.1,28,0.00,,SKC,0.00,VWS V14.01,2013-05-13 12:08:00,
2013-05-13 05:13:00,55.6,22.1,30.21,SSE,155,3.6,6.3,27,0.00,,SKC,0.00,VWS V14.01,2013-05-13 12:13:00,
2013-05-13 05:18:00,56.3,21.9,30.21,SSE,154,3.1,4.0,26,0.00,,SKC,0.00,VWS V14.01,2013-05-13 12:18:00,
2013-05-13 05:23:00,57.9,22.3,30.21,SSE,150,5.8,5.8,25,0.00,,SKC,0.00,VWS V14.01,2013-05-13 12:23:00,
2013-05-13 05:28:00,58.5,22.8,30.21,SSE,164,5.4,5.8,25,0.00,,SKC,0.00,VWS V14.01,2013-05-13 12:28:00,
2013-05-13 05:33:00,58.3,22.6,30.21,SE,140,6.3,6.3,25,0.00,,SKC,0.00,VWS V14.01,2013-05-13 12:33:00,
2013-05-13 05:38:00,58.3,22.6,30.21,SSE,151,7.6,7.6,25,0.00,,SKC,0.00,VWS V14.01,2013-05-13 12:38:00,
2013-05-13 05:43:00,58.1,22.5,30.21,SE,133,8.1,8.1,25,0.00,,SKC,0.00,VWS V14.01,2013-05-13 12:43:00,
2013-05-13 05:48:00,58.1,22.5,30.21,SE,133,4.9,8.1,25,0.00,,SKC,0.00,VWS V14.01,2013-05-13 12:48:00,
2013-05-13 05:53:00,57.9,22.3,30.21,SE,124,4.0,5.8,25,0.00,,SKC,0.00,VWS V14.01,2013-05-13 12:53:00,
2013-05-13 05:58:00,57.9,22.3,30.21,SSE,153,5.4,6.3,25,0.00,,SKC,0.00,VWS V14.01,2013-05-13 12:58:00,
2013-05-13 06:03:00,57.9,22.3,30.21,SE,144,6.3,6.3,25,0.00,,SKC,0.00,VWS V14.01,2013-05-13 13:03:00,
2013-05-13 06:08:00,58.1,22.5,30.21,SE,145,5.4,6.3,25,0.00,,SKC,0.00,VWS V14.01,2013-05-13 13:08:00,
2013-05-13 06:13:00,58.1,22.5,30.21,SE,133,5.4,5.8,25,0.00,,SKC,0.00,VWS V14.01,2013-05-13 13:13:00,
2013-05-13 06:18:00,58.5,22.8,30.21,SE,144,5.4,5.4,25,0.00,,SKC,0.00,VWS V14.01,2013-05-13 13:18:00,
2013-05-13 06:23:00,58.8,23.1,30.21,SE,145,4.0,6.3,25,0.00,,SKC,0.00,VWS V14.01,2013-05-13 13:23:00,
2013-05-13 06:28:00,59.5,22.7,30.21,SSE,150,4.0,4.0,24,0.00,,SKC,0.00,VWS V14.01,2013-05-13 13:28:00,
2013-05-13 06:33:00,60.1,23.2,30.21,South,186,4.0,4.0,24,0.00,,SKC,0.00,VWS V14.01,2013-05-13 13:33:00,
2013-05-13 06:38:00,61.0,24.0,30.21,South,175,3.1,4.0,24,0.00,,SKC,0.00,VWS V14.01,2013-05-13 13:38:00,
2013-05-13 06:43:00,61.5,24.4,30.21,SE,131,5.4,5.4,24,0.00,,SKC,0.00,VWS V14.01,2013-05-13 13:43:00,
2013-05-13 06:48:00,62.2,25.0,30.21,South,185,7.6,7.6,24,0.00,,SKC,0.00,VWS V14.01,2013-05-13 13:48:00,
2013-05-13 06:53:00,62.6,25.3,30.21,South,170,6.3,6.3,24,0.00,,SKC,0.00,VWS V14.01,2013-05-13 13:53:00,
2013-05-13 06:58:00,63.0,24.6,30.21,WSW,237,4.0,4.9,23,0.00,,SKC,0.00,VWS V14.01,2013-05-13 13:58:00,
2013-05-13 07:03:00,63.7,26.2,30.21,SSW,213,4.0,4.0,24,0.00,,SKC,0.00,VWS V14.01,2013-05-13 14:03:00,
2013-05-13 07:08:00,64.2,26.7,30.21,South,172,4.0,4.0,24,0.00,,SKC,0.00,VWS V14.01,2013-05-13 14:08:00,
2013-05-13 07:13:00,65.7,23.5,30.21,South,176,5.4,5.4,20,0.00,,SKC,0.00,VWS V14.01,2013-05-13 14:13:00,
2013-05-13 07:18:00,67.8,25.3,30.21,SSE,164,5.4,5.4,20,0.00,,SKC,0.00,VWS V14.01,2013-05-13 14:18:00,
2013-05-13 07:23:00,68.9,26.2,30.24,SSE,152,7.6,10.5,20,0.00,,SKC,0.00,VWS V14.01,2013-05-13 14:23:00,
2013-05-13 07:28:00,69.4,26.7,30.24,SSE,165,6.3,7.6,20,0.00,,SKC,0.00,VWS V14.01,2013-05-13 14:28:00,
2013-05-13 07:33:00,69.8,25.7,30.24,SSE,154,6.3,8.1,19,0.00,,SKC,0.00,VWS V14.01,2013-05-13 14:33:00,
2013-05-13 07:38:00,70.5,26.3,30.24,SE,146,5.4,5.4,19,0.00,,SKC,0.00,VWS V14.01,2013-05-13 14:38:00,
2013-05-13 07:43:00,71.1,24.1,30.24,SE,146,2.7,4.0,17,0.00,,SKC,0.00,VWS V14.01,2013-05-13 14:43:00,
2013-05-13 07:48:00,71.4,27.0,30.24,North,353,2.7,3.6,19,0.00,,SKC,0.00,VWS V14.01,2013-05-13 14:48:00,
2013-05-13 07:53:00,70.0,25.9,30.24,SE,124,8.3,8.3,19,0.00,,SKC,0.00,VWS V14.01,2013-05-13 14:53:00,
2013-05-13 07:58:00,71.1,26.8,30.24,SSE,148,6.3,6.3,19,0.00,,SKC,0.00,VWS V14.01,2013-05-13 14:58:00,
2013-05-13 08:03:00,72.0,23.4,30.24,SSE,158,6.3,6.3,16,0.00,,SKC,0.00,VWS V14.01,2013-05-13 15:03:00,
2013-05-13 08:08:00,72.9,28.2,30.24,South,189,2.7,3.1,19,0.00,,SKC,0.00,VWS V14.01,2013-05-13 15:08:00,
2013-05-13 08:13:00,73.8,24.8,30.24,SSE,160,5.4,8.1,16,0.00,,SKC,0.00,VWS V14.01,2013-05-13 15:13:00,
2013-05-13 08:18:00,73.9,25.0,30.24,SE,141,6.3,6.3,16,0.00,,SKC,0.00,VWS V14.01,2013-05-13 15:18:00,
2013-05-13 08:23:00,74.7,25.5,30.24,SSE,148,8.1,8.1,16,0.00,,SKC,0.00,VWS V14.01,2013-05-13 15:23:00,
2013-05-13 08:28:00,74.3,28.1,30.24,North,353,0.0,0.0,18,0.00,,SKC,0.00,VWS V14.01,2013-05-13 15:28:00,
2013-05-13 08:33:00,73.6,24.7,30.24,ESE,108,5.4,7.6,16,0.00,,SKC,0.00,VWS V14.01,2013-05-13 15:33:00,
2013-05-13 08:38:00,75.0,25.8,30.24,South,180,2.7,2.7,16,0.00,,SKC,0.00,VWS V14.01,2013-05-13 15:38:00,
2013-05-13 08:43:00,74.8,28.5,30.24,SSE,148,3.6,3.6,18,0.00,,SKC,0.00,VWS V14.01,2013-05-13 15:43:00,
2013-05-13 08:48:00,74.1,27.9,30.24,West,278,4.5,4.5,18,0.00,,SKC,0.00,VWS V14.01,2013-05-13 15:48:00,
2013-05-13 08:53:00,74.1,27.9,30.24,WSW,247,0.0,2.7,18,0.00,,SKC,0.00,VWS V14.01,2013-05-13 15:53:00,
2013-05-13 08:58:00,74.3,28.1,30.24,NW,309,3.6,3.6,18,0.00,,SKC,0.00,VWS V14.01,2013-05-13 15:58:00,
2013-05-13 09:03:00,74.7,28.4,30.24,SW,218,0.0,3.1,18,0.00,,SKC,0.00,VWS V14.01,2013-05-13 16:03:00,
2013-05-13 09:08:00,75.7,29.3,30.24,SSW,213,0.0,0.0,18,0.00,,SKC,0.00,VWS V14.01,2013-05-13 16:08:00,
2013-05-13 09:12:00,77.0,25.9,30.24,SE,128,5.4,8.1,15,0.00,,SKC,0.00,VWS V14.01,2013-05-13 16:12:00,
2013-05-13 09:17:00,77.4,30.6,30.24,WNW,290,4.0,5.8,18,0.00,,SKC,0.00,VWS V14.01,2013-05-13 16:17:00,
2013-05-13 09:22:00,77.7,26.4,30.24,SSE,147,8.1,8.1,15,0.00,,SKC,0.00,VWS V14.01,2013-05-13 16:22:00,
2013-05-13 09:27:00,78.4,27.0,30.24,SSE,163,5.8,5.8,15,0.00,,SKC,0.00,VWS V14.01,2013-05-13 16:27:00,
2013-05-13 09:32:00,78.6,27.1,30.24,SSE,156,5.8,8.3,15,0.00,,SKC,0.00,VWS V14.01,2013-05-13 16:32:00,
2013-05-13 09:37:00,78.4,31.5,30.24,NE,42,3.6,4.9,18,0.00,,SKC,0.00,VWS V14.01,2013-05-13 16:37:00,
2013-05-13 09:42:00,78.1,26.7,30.24,SSW,194,8.1,8.1,15,0.00,,SKC,0.00,VWS V14.01,2013-05-13 16:42:00,
2013-05-13 09:47:00,78.6,27.1,30.24,South,189,12.8,12.8,15,0.00,,SKC,0.00,VWS V14.01,2013-05-13 16:47:00,
2013-05-13 09:52:00,78.8,27.3,30.24,South,182,9.6,10.5,15,0.00,,SKC,0.00,VWS V14.01,2013-05-13 16:52:00,
2013-05-13 09:57:00,79.3,27.7,30.24,SSE,168,10.1,10.1,15,0.00,,SKC,0.00,VWS V14.01,2013-05-13 16:57:00,
2013-05-13 10:02:00,79.2,27.6,30.24,SSE,154,8.1,8.7,15,0.00,,SKC,0.00,VWS V14.01,2013-05-13 17:02:00,
2013-05-13 10:07:00,79.2,27.6,30.24,South,187,11.0,11.0,15,0.00,,SKC,0.00,VWS V14.01,2013-05-13 17:07:00,
2013-05-13 10:12:00,79.3,27.7,30.24,SSW,206,8.1,13.2,15,0.00,,SKC,0.00,VWS V14.01,2013-05-13 17:12:00,
2013-05-13 10:17:00,79.7,28.0,30.24,South,191,3.1,7.6,15,0.00,,SKC,0.00,VWS V14.01,2013-05-13 17:17:00,
2013-05-13 10:22:00,79.0,27.4,30.24,South,178,15.0,15.0,15,0.00,,SKC,0.00,VWS V14.01,2013-05-13 17:22:00,
2013-05-13 10:27:00,79.2,27.6,30.24,South,169,8.7,12.3,15,0.00,,SKC,0.00,VWS V14.01,2013-05-13 17:27:00,
2013-05-13 10:32:00,79.7,28.0,30.24,SSW,195,13.2,15.0,15,0.00,,SKC,0.00,VWS V14.01,2013-05-13 17:32:00,
2013-05-13 10:37:00,79.3,27.7,30.24,SW,223,12.3,12.8,15,0.00,,SKC,0.00,VWS V14.01,2013-05-13 17:37:00,
2013-05-13 10:42:00,79.7,28.0,30.24,South,183,10.1,12.3,15,0.00,,SKC,0.00,VWS V14.01,2013-05-13 17:42:00,
2013-05-13 10:47:00,79.7,28.0,30.24,SSW,212,13.2,13.2,15,0.00,,SKC,0.00,VWS V14.01,2013-05-13 17:47:00,
2013-05-13 10:52:00,80.1,28.3,30.24,SSW,211,15.9,19.7,15,0.00,,SKC,0.00,VWS V14.01,2013-05-13 17:52:00,
2013-05-13 10:57:00,80.4,28.6,30.24,South,186,6.3,12.8,15,0.00,,SKC,0.00,VWS V14.01,2013-05-13 17:57:00,
2013-05-13 11:02:00,80.2,28.4,30.24,SSE,156,11.0,13.6,15,0.00,,SKC,0.00,VWS V14.01,2013-05-13 18:02:00,
2013-05-13 11:07:00,80.4,28.6,30.24,SSW,199,13.6,14.5,15,0.00,,SKC,0.00,VWS V14.01,2013-05-13 18:07:00,
2013-05-13 11:12:00,80.4,28.6,30.24,SSW,206,11.9,12.3,15,0.00,,SKC,0.00,VWS V14.01,2013-05-13 18:12:00,
2013-05-13 11:17:00,80.6,27.0,30.24,SSE,164,9.2,15.4,14,0.00,,SKC,0.00,VWS V14.01,2013-05-13 18:17:00,
2013-05-13 11:22:00,80.4,28.6,30.24,West,280,5.4,8.1,15,0.00,,SKC,0.00,VWS V14.01,2013-05-13 18:22:00,
2013-05-13 11:27:00,79.9,28.1,30.24,South,181,8.3,9.2,15,0.00,,SKC,0.00,VWS V14.01,2013-05-13 18:27:00,
2013-05-13 11:32:00,80.6,27.0,30.24,SW,217,8.7,8.7,14,0.00,,SKC,0.00,VWS V14.01,2013-05-13 18:32:00,
2013-05-13 11:37:00,80.4,28.6,30.27,SSW,209,8.7,10.1,15,0.00,,SKC,0.00,VWS V14.01,2013-05-13 18:37:00,
2013-05-13 11:42:00,80.6,27.0,30.27,SW,227,6.3,17.4,14,0.00,,SKC,0.00,VWS V14.01,2013-05-13 18:42:00,
2013-05-13 11:47:00,81.0,27.3,30.27,South,188,3.6,8.7,14,0.00,,SKC,0.00,VWS V14.01,2013-05-13 18:47:00,
2013-05-13 11:52:00,81.5,27.8,30.24,SSW,203,16.8,16.8,14,0.00,,SKC,0.00,VWS V14.01,2013-05-13 18:52:00,
2013-05-13 11:57:00,81.5,27.8,30.24,West,261,8.1,8.7,14,0.00,,SKC,0.00,VWS V14.01,2013-05-13 18:57:00,
2013-05-13 12:02:00,81.3,27.6,30.24,SSW,193,12.8,12.8,14,0.00,,SKC,0.00,VWS V14.01,2013-05-13 19:02:00,
2013-05-13 12:07:00,81.3,27.6,30.27,SSW,197,5.4,8.1,14,0.00,,SKC,0.00,VWS V14.01,2013-05-13 19:07:00,
2013-05-13 12:12:00,81.7,27.9,30.27,SSW,203,8.7,10.1,14,0.00,,SKC,0.00,VWS V14.01,2013-05-13 19:12:00,
2013-05-13 12:17:00,81.9,28.0,30.27,South,189,7.6,12.3,14,0.00,,SKC,0.00,VWS V14.01,2013-05-13 19:17:00,
2013-05-13 12:22:00,81.9,28.0,30.24,South,169,11.0,11.0,14,0.00,,SKC,0.00,VWS V14.01,2013-05-13 19:22:00,
2013-05-13 12:27:00,81.5,27.8,30.24,South,173,8.1,12.3,14,0.00,,SKC,0.00,VWS V14.01,2013-05-13 19:27:00,
2013-05-13 12:32:00,81.7,27.9,30.24,WSW,256,8.1,8.1,14,0.00,,SKC,0.00,VWS V14.01,2013-05-13 19:32:00,
2013-05-13 12:37:00,81.9,28.0,30.24,ESE,120,17.4,17.4,14,0.00,,SKC,0.00,VWS V14.01,2013-05-13 19:37:00,
2013-05-13 12:42:00,81.0,27.3,30.24,South,171,12.3,12.3,14,0.00,,SKC,0.00,VWS V14.01,2013-05-13 19:42:00,
2013-05-13 12:47:00,81.5,27.8,30.24,SSW,200,7.6,7.6,14,0.00,,SKC,0.00,VWS V14.01,2013-05-13 19:47:00,
2013-05-13 12:52:00,82.2,28.3,30.24,SW,218,5.8,14.5,14,0.00,,SKC,0.00,VWS V14.01,2013-05-13 19:52:00,
2013-05-13 12:57:00,81.3,27.6,30.24,West,274,8.1,8.3,14,0.00,,SKC,0.00,VWS V14.01,2013-05-13 19:57:00,
2013-05-13 13:02:00,81.9,28.0,30.24,SW,233,5.8,5.8,14,0.00,,SKC,0.00,VWS V14.01,2013-05-13 20:02:00,
2013-05-13 13:07:00,82.4,28.5,30.24,SSW,206,10.5,17.4,14,0.00,,SKC,0.00,VWS V14.01,2013-05-13 20:07:00,
2013-05-13 13:12:00,82.2,28.3,30.24,WSW,245,6.3,6.3,14,0.00,,SKC,0.00,VWS V14.01,2013-05-13 20:12:00,
2013-05-13 13:17:00,82.4,28.5,30.24,SSW,197,13.2,13.2,14,0.00,,SKC,0.00,VWS V14.01,2013-05-13 20:17:00,
2013-05-13 13:22:00,82.8,28.8,30.24,SW,236,8.3,11.0,14,0.00,,SKC,0.00,VWS V14.01,2013-05-13 20:22:00,
2013-05-13 13:27:00,83.3,29.2,30.24,SW,216,10.1,12.3,14,0.00,,SKC,0.00,VWS V14.01,2013-05-13 20:27:00,
2013-05-13 13:32:00,83.3,29.2,30.24,SW,221,6.3,6.3,14,0.00,,SKC,0.00,VWS V14.01,2013-05-13 20:32:00,
2013-05-13 13:37:00,82.9,28.9,30.24,WSW,254,2.7,5.8,14,0.00,,SKC,0.00,VWS V14.01,2013-05-13 20:37:00,
2013-05-13 13:42:00,82.0,28.2,30.24,South,176,3.1,8.1,14,0.00,,SKC,0.00,VWS V14.01,2013-05-13 20:42:00,
2013-05-13 13:47:00,82.8,28.8,30.24,WSW,250,6.3,6.3,14,0.00,,SKC,0.00,VWS V14.01,2013-05-13 20:47:00,
2013-05-13 13:52:00,83.1,29.0,30.24,SW,234,14.5,14.5,14,0.00,,SKC,0.00,VWS V14.01,2013-05-13 20:52:00,
2013-05-13 13:57:00,83.3,29.2,30.24,South,173,3.6,8.7,14,0.00,,SKC,0.00,VWS V14.01,2013-05-13 20:57:00,
2013-05-13 14:02:00,83.3,29.2,30.24,SW,219,17.0,17.0,14,0.00,,SKC,0.00,VWS V14.01,2013-05-13 21:02:00,
2013-05-13 14:07:00,83.7,29.5,30.24,SSW,195,6.3,6.3,14,0.00,,SKC,0.00,VWS V14.01,2013-05-13 21:07:00,
2013-05-13 14:12:00,82.6,28.6,30.24,West,259,5.4,5.4,14,0.00,,SKC,0.00,VWS V14.01,2013-05-13 21:12:00,
2013-05-13 14:17:00,82.4,28.5,30.24,SSW,211,7.2,7.6,14,0.00,,SKC,0.00,VWS V14.01,2013-05-13 21:17:00,
2013-05-13 14:22:00,82.2,28.3,30.24,WSW,239,5.4,5.8,14,0.00,,SKC,0.00,VWS V14.01,2013-05-13 21:22:00,
2013-05-13 14:27:00,82.8,28.8,30.24,WSW,251,10.5,10.5,14,0.00,,SKC,0.00,VWS V14.01,2013-05-13 21:27:00,
2013-05-13 14:32:00,82.6,28.6,30.24,SW,224,12.8,12.8,14,0.00,,SKC,0.00,VWS V14.01,2013-05-13 21:32:00,
2013-05-13 14:37:00,82.4,28.5,30.24,SW,236,5.8,5.8,14,0.00,,SKC,0.00,VWS V14.01,2013-05-13 21:37:00,
2013-05-13 14:42:00,82.8,28.8,30.24,SSW,197,5.4,6.3,14,0.00,,SKC,0.00,VWS V14.01,2013-05-13 21:42:00,
2013-05-13 14:47:00,83.3,29.2,30.24,SSE,167,8.3,8.3,14,0.00,,SKC,0.00,VWS V14.01,2013-05-13 21:47:00,
2013-05-13 14:52:00,83.7,29.5,30.24,SSW,201,8.7,8.7,14,0.00,,SKC,0.00,VWS V14.01,2013-05-13 21:52:00,
2013-05-13 14:57:00,84.2,28.1,30.24,WSW,250,8.1,8.1,13,0.00,,SKC,0.00,VWS V14.01,2013-05-13 21:57:00,
2013-05-13 15:02:00,84.2,28.1,30.24,WSW,251,5.8,7.6,13,0.00,,SKC,0.00,VWS V14.01,2013-05-13 22:02:00,
2013-05-13 15:07:00,83.3,29.2,30.24,WSW,256,6.3,6.3,14,0.00,,SKC,0.00,VWS V14.01,2013-05-13 22:07:00,
2013-05-13 15:12:00,83.5,29.3,30.24,WSW,243,6.3,6.3,14,0.00,,SKC,0.00,VWS V14.01,2013-05-13 22:12:00,
2013-05-13 15:17:00,83.7,29.5,30.24,WSW,245,6.3,6.3,14,0.00,,SKC,0.00,VWS V14.01,2013-05-13 22:17:00,
2013-05-13 15:22:00,82.8,28.8,30.24,WSW,242,8.1,10.5,14,0.00,,SKC,0.00,VWS V14.01,2013-05-13 22:22:00,
2013-05-13 15:27:00,82.2,28.3,30.24,WSW,250,7.6,7.6,14,0.00,,SKC,0.00,VWS V14.01,2013-05-13 22:27:00,
2013-05-13 15:32:00,81.9,28.0,30.24,SSW,200,3.1,4.0,14,0.00,,SKC,0.00,VWS V14.01,2013-05-13 22:32:00,
2013-05-13 15:37:00,82.4,28.5,30.24,SSW,211,8.3,8.3,14,0.00,,SKC,0.00,VWS V14.01,2013-05-13 22:37:00,
2013-05-13 15:42:00,81.7,27.9,30.24,WSW,248,7.6,8.1,14,0.00,,SKC,0.00,VWS V14.01,2013-05-13 22:42:00,
2013-05-13 15:47:00,82.8,28.8,30.24,West,259,6.7,8.3,14,0.00,,SKC,0.00,VWS V14.01,2013-05-13 22:47:00,
2013-05-13 15:52:00,83.5,29.3,30.24,West,268,3.6,8.7,14,0.00,,SKC,0.00,VWS V14.01,2013-05-13 22:52:00,
2013-05-13 15:57:00,80.8,27.2,30.24,SW,219,5.4,5.4,14,0.00,,SKC,0.00,VWS V14.01,2013-05-13 22:57:00,
2013-05-13 16:02:00,81.1,27.5,30.24,WSW,243,7.6,7.6,14,0.00,,SKC,0.00,VWS V14.01,2013-05-13 23:02:00,
2013-05-13 16:07:00,81.0,27.3,30.24,WNW,286,8.3,8.3,14,0.00,,SKC,0.00,VWS V14.01,2013-05-13 23:07:00,
2013-05-13 16:12:00,81.1,27.5,30.24,SW,227,13.2,13.2,14,0.00,,SKC,0.00,VWS V14.01,2013-05-13 23:12:00,
2013-05-13 16:17:00,80.4,28.6,30.24,SSW,196,3.6,3.6,15,0.00,,SKC,0.00,VWS V14.01,2013-05-13 23:17:00,
2013-05-13 16:22:00,81.5,27.8,30.24,SW,217,12.8,12.8,14,0.00,,SKC,0.00,VWS V14.01,2013-05-13 23:22:00,
2013-05-13 16:27:00,81.7,27.9,30.24,SW,215,8.3,8.3,14,0.00,,SKC,0.00,VWS V14.01,2013-05-13 23:27:00,
2013-05-13 16:32:00,81.9,28.0,30.24,WSW,243,5.8,12.3,14,0.00,,SKC,0.00,VWS V14.01,2013-05-13 23:32:00,
2013-05-13 16:37:00,80.6,27.0,30.24,SW,225,3.6,10.1,14,0.00,,SKC,0.00,VWS V14.01,2013-05-13 23:37:00,
2013-05-13 16:42:00,81.1,27.5,30.24,SW,215,6.3,7.2,14,0.00,,SKC,0.00,VWS V14.01,2013-05-13 23:42:00,
2013-05-13 16:47:00,82.0,28.2,30.24,SSE,161,11.0,11.0,14,0.00,,SKC,0.00,VWS V14.01,2013-05-13 23:47:00,
2013-05-13 16:52:00,81.9,28.0,30.24,WSW,246,5.8,8.7,14,0.00,,SKC,0.00,VWS V14.01,2013-05-13 23:52:00,
2013-05-13 16:57:00,81.7,27.9,30.24,West,279,8.1,10.1,14,0.00,,SKC,0.00,VWS V14.01,2013-05-13 23:57:00,
2013-05-13 17:02:00,82.0,28.2,30.24,SW,217,4.0,5.8,14,0.00,,SKC,0.00,VWS V14.01,2013-05-14 00:02:00,
2013-05-13 17:07:00,81.7,27.9,30.21,SW,232,5.4,5.4,14,0.00,,SKC,0.00,VWS V14.01,2013-05-14 00:07:00,
2013-05-13 17:12:00,80.1,28.3,30.21,SW,236,5.4,8.3,15,0.00,,SKC,0.00,VWS V14.01,2013-05-14 00:12:00,
2013-05-13 17:17:00,80.2,28.4,30.21,SW,233,4.9,4.9,15,0.00,,SKC,0.00,VWS V14.01,2013-05-14 00:17:00,
2013-05-13 17:22:00,81.0,27.3,30.24,South,174,3.1,4.0,14,0.00,,SKC,0.00,VWS V14.01,2013-05-14 00:22:00,
2013-05-13 17:27:00,81.0,27.3,30.24,WSW,252,12.8,15.0,14,0.00,,SKC,0.00,VWS V14.01,2013-05-14 00:27:00,
2013-05-13 17:32:00,79.7,28.0,30.24,South,174,7.6,7.6,15,0.00,,SKC,0.00,VWS V14.01,2013-05-14 00:32:00,
2013-05-13 17:37:00,79.3,27.7,30.24,SW,224,3.6,7.6,15,0.00,,SKC,0.00,VWS V14.01,2013-05-14 00:37:00,
2013-05-13 17:42:00,78.6,27.1,30.24,SSW,210,2.7,5.8,15,0.00,,SKC,0.00,VWS V14.01,2013-05-14 00:42:00,
2013-05-13 17:47:00,78.4,27.0,30.24,SW,231,0.0,3.1,15,0.00,,SKC,0.00,VWS V14.01,2013-05-14 00:47:00,
2013-05-13 17:52:00,78.1,26.7,30.21,SSW,213,4.0,5.8,15,0.00,,SKC,0.00,VWS V14.01,2013-05-14 00:52:00,
2013-05-13 17:57:00,77.9,26.6,30.21,WSW,240,11.0,11.0,15,0.00,,SKC,0.00,VWS V14.01,2013-05-14 00:57:00,
2013-05-13 18:02:00,77.0,25.9,30.21,West,267,5.8,6.3,15,0.00,,SKC,0.00,VWS V14.01,2013-05-14 01:02:00,
2013-05-13 18:07:00,76.6,25.6,30.21,SW,228,4.9,4.9,15,0.00,,SKC,0.00,VWS V14.01,2013-05-14 01:07:00,
2013-05-13 18:12:00,76.1,25.1,30.21,South,172,8.1,8.1,15,0.00,,SKC,0.00,VWS V14.01,2013-05-14 01:12:00,
2013-05-13 18:17:00,75.7,24.9,30.21,West,265,5.4,8.1,15,0.00,,SKC,0.00,VWS V14.01,2013-05-14 01:17:00,
2013-05-13 18:22:00,76.1,25.1,30.21,SSW,210,3.6,5.8,15,0.00,,SKC,0.00,VWS V14.01,2013-05-14 01:22:00,
2013-05-13 18:27:00,75.6,24.7,30.21,SW,227,3.1,8.7,15,0.00,,SKC,0.00,VWS V14.01,2013-05-14 01:27:00,
2013-05-13 18:32:00,75.4,24.6,30.21,SW,230,5.8,5.8,15,0.00,,SKC,0.00,VWS V14.01,2013-05-14 01:32:00,
2013-05-13 18:37:00,75.2,24.4,30.21,WSW,245,6.7,10.1,15,0.00,,SKC,0.00,VWS V14.01,2013-05-14 01:37:00,
2013-05-13 18:42:00,75.2,24.4,30.21,WSW,241,3.1,5.4,15,0.00,,SKC,0.00,VWS V14.01,2013-05-14 01:42:00,
2013-05-13 18:47:00,74.8,25.7,30.21,SSW,211,5.8,7.2,16,0.00,,SKC,0.00,VWS V14.01,2013-05-14 01:47:00,
2013-05-13 18:52:00,74.5,25.4,30.21,SSW,213,3.6,4.0,16,0.00,,SKC,0.00,VWS V14.01,2013-05-14 01:52:00,
2013-05-13 18:57:00,73.9,25.0,30.21,SW,229,5.8,8.1,16,0.00,,SKC,0.00,VWS V14.01,2013-05-14 01:57:00,
2013-05-13 19:02:00,73.4,24.5,30.21,WSW,254,10.1,10.1,16,0.00,,SKC,0.00,VWS V14.01,2013-05-14 02:02:00,
2013-05-13 19:07:00,72.9,24.1,30.21,SW,225,6.3,7.6,16,0.00,,SKC,0.00,VWS V14.01,2013-05-14 02:07:00,
2013-05-13 19:12:00,72.7,23.9,30.21,SW,221,2.2,4.9,16,0.00,,SKC,0.00,VWS V14.01,2013-05-14 02:12:00,
2013-05-13 19:17:00,72.1,23.5,30.21,WSW,237,5.8,6.3,16,0.00,,SKC,0.00,VWS V14.01,2013-05-14 02:17:00,
2013-05-13 19:22:00,71.6,23.1,30.21,SW,216,0.0,0.0,16,0.00,,SKC,0.00,VWS V14.01,2013-05-14 02:22:00,
2013-05-13 19:27:00,70.9,23.9,30.21,SSW,209,2.2,4.0,17,0.00,,SKC,0.00,VWS V14.01,2013-05-14 02:27:00,
2013-05-13 19:32:00,70.3,23.5,30.21,SW,219,5.4,5.4,17,0.00,,SKC,0.00,VWS V14.01,2013-05-14 02:32:00,
2013-05-13 19:37:00,69.4,22.8,30.21,SSW,199,0.0,0.0,17,0.00,,SKC,0.00,VWS V14.01,2013-05-14 02:37:00,
2013-05-13 19:42:00,68.5,22.0,30.21,SSW,210,0.0,0.0,17,0.00,,SKC,0.00,VWS V14.01,2013-05-14 02:42:00,
2013-05-13 19:47:00,67.6,21.3,30.21,SSW,204,0.0,0.0,17,0.00,,SKC,0.00,VWS V14.01,2013-05-14 02:47:00,
2013-05-13 19:52:00,67.3,21.0,30.21,SSW,202,0.0,0.0,17,0.00,,SKC,0.00,VWS V14.01,2013-05-14 02:52:00,
2013-05-13 19:57:00,66.9,20.7,30.21,SSE,163,0.0,0.0,17,0.00,,SKC,0.00,VWS V14.01,2013-05-14 02:57:00,
2013-05-13 20:00:00,63.1,19.0,30.21,SE,129,4.0,4.9,18,0.00,,SKC,0.00,VWS V14.01,2013-05-14 03:00:00,
2013-05-13 20:01:00,63.0,18.8,30.21,ESE,115,4.9,5.4,18,0.00,,SKC,0.00,VWS V14.01,2013-05-14 03:01:00,
2013-05-13 20:02:00,66.4,20.3,30.21,SW,214,0.0,0.0,17,0.00,,SKC,0.00,VWS V14.01,2013-05-14 03:02:00,
2013-05-13 20:03:00,63.1,19.0,30.21,SSE,148,4.9,6.3,18,0.00,,SKC,0.00,VWS V14.01,2013-05-14 03:03:00,
2013-05-13 20:04:00,63.3,19.1,30.21,SE,141,4.0,4.9,18,0.00,,SKC,0.00,VWS V14.01,2013-05-14 03:04:00,
2013-05-13 20:05:00,63.3,19.1,30.21,SE,131,5.8,5.8,18,0.00,,SKC,0.00,VWS V14.01,2013-05-14 03:05:00,
2013-05-13 20:06:00,63.3,19.1,30.21,ESE,120,4.0,4.0,18,0.00,,SKC,0.00,VWS V14.01,2013-05-14 03:06:00,
2013-05-13 20:07:00,65.8,21.2,30.21,SW,214,0.0,0.0,18,0.00,,SKC,0.00,VWS V14.01,2013-05-14 03:07:00,
2013-05-13 20:12:00,65.7,21.0,30.21,SW,214,0.0,0.0,18,0.00,,SKC,0.00,VWS V14.01,2013-05-14 03:12:00,
2013-05-13 20:17:00,65.5,20.9,30.21,SW,214,0.0,0.0,18,0.00,,SKC,0.00,VWS V14.01,2013-05-14 03:17:00,
2013-05-13 20:22:00,65.7,21.0,30.21,SE,125,4.9,4.9,18,0.00,,SKC,0.00,VWS V14.01,2013-05-14 03:22:00,
2013-05-13 20:27:00,66.0,21.3,30.21,ESE,122,0.0,0.0,18,0.00,,SKC,0.00,VWS V14.01,2013-05-14 03:27:00,
2013-05-13 20:32:00,66.2,20.1,30.21,ESE,123,3.1,4.0,17,0.00,,SKC,0.00,VWS V14.01,2013-05-14 03:32:00,
2013-05-13 20:37:00,66.4,20.3,30.21,SE,142,2.2,2.7,17,0.00,,SKC,0.00,VWS V14.01,2013-05-14 03:37:00,
2013-05-13 20:42:00,66.0,21.3,30.21,SE,141,3.1,3.6,18,0.00,,SKC,0.00,VWS V14.01,2013-05-14 03:42:00,
2013-05-13 20:47:00,64.8,20.3,30.21,SE,127,3.6,3.6,18,0.00,,SKC,0.00,VWS V14.01,2013-05-14 03:47:00,
2013-05-13 20:52:00,63.7,19.4,30.21,ESE,113,2.7,3.6,18,0.00,,SKC,0.00,VWS V14.01,2013-05-14 03:52:00,
2013-05-13 20:57:00,63.1,19.0,30.21,SE,126,2.7,4.0,18,0.00,,SKC,0.00,VWS V14.01,2013-05-14 03:57:00,
2013-05-13 21:03:00,63.1,19.0,30.21,SE,130,4.5,4.9,18,0.00,,SKC,0.00,VWS V14.01,2013-05-14 04:03:00,
2013-05-13 21:08:00,63.5,19.3,30.21,SE,132,4.0,4.9,18,0.00,,SKC,0.00,VWS V14.01,2013-05-14 04:08:00,
2013-05-13 21:13:00,64.0,19.7,30.21,ESE,120,4.9,4.9,18,0.00,,SKC,0.00,VWS V14.01,2013-05-14 04:13:00,
2013-05-13 21:18:00,64.0,19.7,30.21,SE,136,3.6,4.0,18,0.00,,SKC,0.00,VWS V14.01,2013-05-14 04:18:00,
2013-05-13 21:23:00,63.7,19.4,30.21,SE,128,2.7,3.6,18,0.00,,SKC,0.00,VWS V14.01,2013-05-14 04:23:00,
2013-05-13 21:28:00,63.1,19.0,30.21,SE,130,3.1,3.6,18,0.00,,SKC,0.00,VWS V14.01,2013-05-14 04:28:00,
2013-05-13 21:33:00,63.0,18.8,30.21,SSE,152,5.4,5.4,18,0.00,,SKC,0.00,VWS V14.01,2013-05-14 04:33:00,
2013-05-13 21:38:00,63.1,19.0,30.21,SSE,163,4.9,6.3,18,0.00,,SKC,0.00,VWS V14.01,2013-05-14 04:38:00,
2013-05-13 21:43:00,65.8,21.2,30.21,SSE,149,6.3,8.1,18,0.00,,SKC,0.00,VWS V14.01,2013-05-14 04:43:00,
2013-05-13 21:48:00,66.7,20.6,30.21,SSE,152,3.6,6.3,17,0.00,,SKC,0.00,VWS V14.01,2013-05-14 04:48:00,
2013-05-13 21:53:00,66.9,20.7,30.21,SSW,194,6.3,6.3,17,0.00,,SKC,0.00,VWS V14.01,2013-05-14 04:53:00,
2013-05-13 21:58:00,67.1,20.9,30.21,SSE,158,5.8,5.8,17,0.00,,SKC,0.00,VWS V14.01,2013-05-14 04:58:00,
2013-05-13 22:03:00,67.3,21.0,30.21,SSE,166,5.8,8.1,17,0.00,,SKC,0.00,VWS V14.01,2013-05-14 05:03:00,
2013-05-13 22:08:00,67.1,20.9,30.18,South,190,4.9,4.9,17,0.00,,SKC,0.00,VWS V14.01,2013-05-14 05:08:00,
2013-05-13 22:13:00,66.9,20.7,30.18,SE,124,5.4,5.4,17,0.00,,SKC,0.00,VWS V14.01,2013-05-14 05:13:00,
2013-05-13 22:18:00,67.1,20.9,30.18,South,177,4.9,7.2,17,0.00,,SKC,0.00,VWS V14.01,2013-05-14 05:18:00,
2013-05-13 22:23:00,67.5,21.2,30.18,SE,139,5.4,6.3,17,0.00,,SKC,0.00,VWS V14.01,2013-05-14 05:23:00,
2013-05-13 22:28:00,67.6,21.3,30.18,SSW,211,6.3,8.1,17,0.00,,SKC,0.00,VWS V14.01,2013-05-14 05:28:00,
2013-05-13 22:33:00,67.5,21.2,30.18,SE,145,5.8,5.8,17,0.00,,SKC,0.00,VWS V14.01,2013-05-14 05:33:00,
2013-05-13 22:38:00,67.3,21.0,30.18,SE,146,8.1,8.1,17,0.00,,SKC,0.00,VWS V14.01,2013-05-14 05:38:00,
2013-05-13 22:43:00,67.3,21.0,30.18,SSW,192,3.1,4.9,17,0.00,,SKC,0.00,VWS V14.01,2013-05-14 05:43:00,
2013-05-13 22:48:00,66.2,20.1,30.18,SSW,209,3.1,6.7,17,0.00,,SKC,0.00,VWS V14.01,2013-05-14 05:48:00,
2013-05-13 22:53:00,65.3,20.7,30.18,WNW,293,0.0,0.0,18,0.00,,SKC,0.00,VWS V14.01,2013-05-14 05:53:00,
2013-05-13 22:58:00,63.1,19.0,30.18,North,9,2.7,5.4,18,0.00,,SKC,0.00,VWS V14.01,2013-05-14 05:58:00,
2013-05-13 23:03:00,60.6,18.2,30.18,NW,326,2.7,2.7,19,0.00,,SKC,0.00,VWS V14.01,2013-05-14 06:03:00,
2013-05-13 23:08:00,59.5,17.3,30.18,NNW,330,0.0,0.0,19,0.00,,SKC,0.00,VWS V14.01,2013-05-14 06:08:00,
2013-05-13 23:13:00,59.0,16.8,30.18,NNW,329,0.0,0.0,19,0.00,,SKC,0.00,VWS V14.01,2013-05-14 06:13:00,
2013-05-13 23:18:00,59.5,17.3,30.18,ESE,121,0.0,0.0,19,0.00,,SKC,0.00,VWS V14.01,2013-05-14 06:18:00,
2013-05-13 23:23:00,59.4,17.1,30.18,SSE,159,0.0,0.0,19,0.00,,SKC,0.00,VWS V14.01,2013-05-14 06:23:00,
2013-05-13 23:28:00,58.8,16.7,30.18,SE,138,0.0,0.0,19,0.00,,SKC,0.00,VWS V14.01,2013-05-14 06:28:00,
2013-05-13 23:33:00,58.1,16.1,30.18,SE,134,0.0,0.0,19,0.00,,SKC,0.00,VWS V14.01,2013-05-14 06:33:00,
2013-05-13 23:38:00,57.7,19.2,30.15,WNW,299,0.0,0.0,22,0.00,,SKC,0.00,VWS V14.01,2013-05-14 06:38:00,
2013-05-13 23:43:00,56.8,18.4,30.15,West,266,0.0,0.0,22,0.00,,SKC,0.00,VWS V14.01,2013-05-14 06:43:00,
2013-05-13 23:48:00,56.8,18.4,30.15,SSW,198,0.0,0.0,22,0.00,,SKC,0.00,VWS V14.01,2013-05-14 06:48:00,
2013-05-13 23:53:00,57.2,18.7,30.15,WSW,243,0.0,0.0,22,0.00,,SKC,0.00,VWS V14.01,2013-05-14 06:53:00,
2013-05-13 23:58:00,56.8,18.4,30.15,WSW,257,0.0,0.0,22,0.00,,SKC,0.00,VWS V14.01,2013-05-14 06:58:00,